Time;durP1;ratioP1;P1;durP2;ratioP2;P2;SDS_P1;SDS_P2;PMS_P1;PMS_P2;Temp;Humidity;BMP_temperature;BMP_pressure;BME280_temperature;BME280_humidity;BME280_pressure;Samples;Min_cycle;Max_cycle;Signal;HPM_P1;HPM_P2
2022/01/24 00:02:58;;;;;;;46.53;25.33;;;11.10;75.30;;;;;;10522397;28;20573;-87
2022/01/24 00:08:01;;;;;;;46.27;25.23;;;11.00;75.50;;;;;;10539793;28;20242;-87
2022/01/24 00:13:31;;;;;;;49.87;25.60;;;11.10;75.40;;;;;;10539826;28;20199;-87
2022/01/24 00:28:52;;;;;;;44.73;25.07;;;10.90;75.30;;;;;;10539236;28;20590;-87
2022/01/24 00:33:55;;;;;;;50.57;26.80;;;11.00;75.60;;;;;;10520575;28;20252;-87
2022/01/24 00:38:58;;;;;;;49.87;26.57;;;11.10;75.70;;;;;;10520299;28;20283;-87
2022/01/24 00:59:29;;;;;;;58.30;28.10;;;11.10;75.40;;;;;;10538903;28;20223;-87
2022/01/24 01:20:30;;;;;;;53.93;27.67;;;11.20;75.30;;;;;;10546644;28;20627;-87
2022/01/24 01:25:33;;;;;;;54.00;27.60;;;11.10;75.60;;;;;;10546550;28;20199;-87
2022/01/24 01:30:44;;;;;;;54.13;27.37;;;11.10;75.40;;;;;;10511015;28;20236;-87
2022/01/24 01:56:59;;;;;;;51.17;28.50;;;11.30;75.10;;;;;;10544685;28;20218;-87
2022/01/24 02:02:02;;;;;;;54.77;27.23;;;11.20;75.10;;;;;;10545084;28;20195;-87
2022/01/24 02:07:09;;;;;;;53.47;28.67;;;11.30;74.80;;;;;;10544731;28;20563;-87
2022/01/24 02:12:12;;;;;;;54.60;26.50;;;11.20;75.10;;;;;;10544389;28;20198;-87
2022/01/24 02:17:22;;;;;;;56.57;27.93;;;11.30;75.00;;;;;;10543655;28;20781;-87
2022/01/24 02:27:40;;;;;;;52.10;26.97;;;11.30;74.90;;;;;;10543920;28;20207;-87
2022/01/24 02:32:42;;;;;;;57.00;27.97;;;11.30;75.30;;;;;;10525916;28;20277;-87
2022/01/24 02:37:45;;;;;;;53.33;27.57;;;11.30;74.90;;;;;;10543415;28;20219;-87
2022/01/24 02:48:25;;;;;;;48.90;27.70;;;11.20;75.50;;;;;;10543378;28;20252;-87
2022/01/24 02:53:29;;;;;;;52.07;26.73;;;11.30;75.70;;;;;;10525129;28;20229;-87
2022/01/24 02:58:33;;;;;;;52.37;28.63;;;11.30;75.00;;;;;;10542739;28;20219;-87
2022/01/24 03:03:37;;;;;;;55.13;28.93;;;11.20;75.40;;;;;;10542314;28;20194;-87
2022/01/24 03:08:41;;;;;;;50.77;26.50;;;11.30;75.10;;;;;;10542209;28;20609;-87
2022/01/24 03:13:43;;;;;;;49.23;28.30;;;11.20;75.30;;;;;;10542042;28;20222;-87
2022/01/24 03:18:46;;;;;;;50.20;27.47;;;11.20;75.20;;;;;;10523903;28;20224;-87
2022/01/24 03:23:49;;;;;;;56.53;27.67;;;11.20;75.40;;;;;;10522925;28;20206;-87
2022/01/24 03:28:52;;;;;;;50.83;26.30;;;11.10;75.70;;;;;;10522832;28;20280;-87
2022/01/24 03:33:55;;;;;;;50.40;27.03;;;11.10;75.70;;;;;;10523456;28;20198;-87
2022/01/24 03:38:58;;;;;;;43.33;25.13;;;11.20;75.40;;;;;;10523163;28;20586;-87
2022/01/24 03:44:04;;;;;;;49.37;25.40;;;11.20;75.70;;;;;;10540972;28;20199;-87
2022/01/24 03:49:19;;;;;;;49.63;27.70;;;11.20;75.50;;;;;;10522774;28;20230;-87
2022/01/24 03:54:21;;;;;;;59.03;27.50;;;11.20;75.60;;;;;;10540616;28;20732;-87
2022/01/24 03:59:24;;;;;;;48.70;26.83;;;11.20;75.50;;;;;;10540465;28;20628;-87
2022/01/24 04:04:27;;;;;;;53.87;28.07;;;11.40;75.00;;;;;;10505163;28;20267;-87
2022/01/24 04:09:29;;;;;;;42.90;25.50;;;11.30;75.30;;;;;;10540058;28;20204;-87
2022/01/24 04:14:40;;;;;;;57.83;27.30;;;11.30;75.20;;;;;;10521276;28;20272;-87
2022/01/24 04:24:47;;;;;;;50.60;26.80;;;11.20;75.50;;;;;;10539399;28;20675;-87
2022/01/24 04:29:50;;;;;;;55.27;28.17;;;11.20;75.60;;;;;;10539287;28;20235;-87
2022/01/24 04:34:52;;;;;;;45.17;25.83;;;11.30;75.10;;;;;;10504147;28;20203;-87
2022/01/24 04:39:56;;;;;;;50.07;25.93;;;11.20;75.60;;;;;;10520880;28;20210;-87
2022/01/24 04:55:22;;;;;;;59.20;30.30;;;11.00;76.10;;;;;;10538686;28;20563;-87
2022/01/24 05:00:24;;;;;;;48.93;25.60;;;10.70;76.40;;;;;;10520664;28;20271;-87
2022/01/24 05:05:28;;;;;;;49.10;26.20;;;10.70;77.10;;;;;;10538557;28;20540;-87
2022/01/24 05:10:38;;;;;;;44.47;25.27;;;10.70;77.10;;;;;;10520464;28;20742;-87
2022/01/24 05:26:22;;;;;;;47.30;25.53;;;10.90;77.20;;;;;;10538101;28;20535;-87
2022/01/24 05:31:24;;;;;;;46.90;26.03;;;10.90;76.70;;;;;;10520069;28;20220;-87
2022/01/24 05:36:27;;;;;;;42.87;23.70;;;10.90;76.60;;;;;;10520097;28;20248;-87
2022/01/24 05:41:29;;;;;;;49.70;27.43;;;10.90;76.80;;;;;;10537690;28;20582;-87
2022/01/24 05:46:32;;;;;;;44.70;25.47;;;10.80;76.90;;;;;;10537713;28;20662;-87
2022/01/24 05:51:35;;;;;;;48.57;25.63;;;10.80;77.10;;;;;;10543752;28;20239;-87
2022/01/24 05:56:37;;;;;;;46.90;26.27;;;11.20;76.20;;;;;;10545234;28;20233;-87
2022/01/24 06:01:40;;;;;;;46.20;27.33;;;11.20;75.70;;;;;;10545020;28;20212;-87
2022/01/24 06:06:42;;;;;;;42.23;25.50;;;11.00;75.60;;;;;;10544858;28;20236;-87
2022/01/24 06:11:45;;;;;;;44.20;25.70;;;11.10;76.40;;;;;;10509765;28;20260;-87
2022/01/24 06:16:47;;;;;;;42.67;23.23;;;11.20;76.00;;;;;;10526609;28;20198;-87
2022/01/24 06:21:50;;;;;;;41.67;23.23;;;11.40;75.30;;;;;;10544244;28;20270;-87
2022/01/24 06:26:53;;;;;;;58.27;31.63;;;11.30;75.40;;;;;;10543980;28;20197;-87
2022/01/24 06:31:55;;;;;;;44.97;25.37;;;11.10;75.60;;;;;;10525847;28;20272;-87
2022/01/24 06:36:57;;;;;;;44.17;25.10;;;11.00;76.30;;;;;;10524919;28;20206;-87
2022/01/24 06:42:09;;;;;;;44.43;25.40;;;11.00;76.70;;;;;;10525805;28;20259;-87
2022/01/24 06:47:12;;;;;;;45.87;25.50;;;10.90;76.60;;;;;;10543422;28;20239;-87
2022/01/24 06:52:15;;;;;;;51.97;27.07;;;10.90;76.90;;;;;;10543049;28;20251;-87
2022/01/24 06:57:17;;;;;;;48.10;26.70;;;11.00;76.60;;;;;;10542685;28;20194;-87
2022/01/24 07:02:20;;;;;;;46.10;24.37;;;11.10;76.50;;;;;;10542432;28;20190;-87
2022/01/24 07:07:22;;;;;;;46.77;25.40;;;11.10;76.30;;;;;;10524478;28;20190;-87
2022/01/24 07:12:25;;;;;;;44.03;25.63;;;11.10;76.40;;;;;;10523569;28;20752;-87
2022/01/24 07:17:34;;;;;;;50.00;27.30;;;11.10;76.40;;;;;;10524118;28;20264;-87
2022/01/24 07:22:37;;;;;;;45.50;26.90;;;11.20;76.00;;;;;;10523982;28;20255;-87
2022/01/24 07:27:39;;;;;;;50.17;26.10;;;11.20;75.90;;;;;;10523531;28;20235;-87
2022/01/24 07:32:42;;;;;;;48.33;25.43;;;11.20;75.90;;;;;;10541667;28;20202;-87
2022/01/24 07:37:44;;;;;;;49.23;26.47;;;11.30;75.80;;;;;;10541068;28;20558;-87
2022/01/24 07:42:54;;;;;;;43.27;26.07;;;11.30;75.90;;;;;;10523243;28;20190;-87
2022/01/24 07:47:56;;;;;;;45.50;25.67;;;11.30;75.90;;;;;;10540854;28;20193;-87
2022/01/24 07:52:59;;;;;;;45.23;25.43;;;11.30;75.80;;;;;;10522099;28;20256;-87
2022/01/24 07:58:02;;;;;;;45.97;25.07;;;11.60;75.00;;;;;;10521230;28;20674;-87
2022/01/24 08:03:06;;;;;;;47.17;24.90;;;11.90;73.90;;;;;;10521506;28;20198;-87
2022/01/24 08:08:08;;;;;;;49.00;26.83;;;12.00;74.00;;;;;;10521370;28;20206;-87
2022/01/24 08:13:13;;;;;;;46.87;25.83;;;12.10;73.10;;;;;;10539050;28;20670;-88
2022/01/24 08:18:15;;;;;;;47.27;26.07;;;12.20;72.80;;;;;;10539643;28;20219;-87
2022/01/24 08:23:20;;;;;;;45.03;24.70;;;12.30;72.60;;;;;;10539536;28;20190;-87
2022/01/24 08:28:28;;;;;;;48.03;26.93;;;12.20;72.70;;;;;;10539607;28;20561;-87
2022/01/24 08:33:31;;;;;;;45.87;26.50;;;12.40;72.10;;;;;;10539505;28;20227;-87
2022/01/24 08:38:35;;;;;;;41.50;25.43;;;12.50;71.80;;;;;;10520628;28;20555;-87
2022/01/24 08:43:57;;;;;;;42.77;26.47;;;12.50;71.80;;;;;;10539035;28;20197;-87
2022/01/24 08:49:00;;;;;;;43.13;24.90;;;12.30;72.10;;;;;;10521254;28;20197;-87
2022/01/24 08:54:04;;;;;;;41.40;23.77;;;12.40;72.10;;;;;;10520229;28;20210;-87
2022/01/24 08:59:07;;;;;;;45.50;26.03;;;12.60;72.10;;;;;;10519919;28;20566;-87
2022/01/24 09:04:10;;;;;;;45.77;24.77;;;12.50;71.60;;;;;;10538447;28;20670;-87
2022/01/24 09:09:14;;;;;;;40.30;22.83;;;12.50;71.70;;;;;;10538602;28;20198;-87
2022/01/24 09:14:17;;;;;;;39.47;22.87;;;12.40;71.80;;;;;;10538584;28;20199;-87
2022/01/24 09:19:19;;;;;;;43.03;23.87;;;12.30;72.20;;;;;;10520222;28;20238;-87
2022/01/24 09:24:22;;;;;;;44.57;24.70;;;12.30;72.30;;;;;;10525450;28;20270;-87
2022/01/24 09:29:25;;;;;;;42.83;23.93;;;12.40;72.00;;;;;;10547974;28;20227;-87
2022/01/24 09:34:27;;;;;;;39.07;23.93;;;12.20;72.50;;;;;;10529532;28;20221;-87
2022/01/24 09:39:30;;;;;;;41.83;23.57;;;12.20;72.50;;;;;;10547127;28;20240;-87
2022/01/24 09:44:52;;;;;;;51.97;28.87;;;12.20;72.40;;;;;;10546715;28;20225;-87
2022/01/24 09:49:55;;;;;;;38.33;23.40;;;11.60;73.90;;;;;;10545626;28;20198;-87
2022/01/24 09:54:57;;;;;;;37.30;22.53;;;11.60;74.50;;;;;;10545399;28;20197;-87
2022/01/24 10:00:00;;;;;;;42.37;23.57;;;12.20;73.10;;;;;;10545280;28;20219;-86
2022/01/24 10:05:20;;;;;;;39.77;22.70;;;11.90;73.40;;;;;;10540252;28;20198;-87
2022/01/24 10:10:44;;;;;;;35.83;21.60;;;12.30;72.80;;;;;;10544907;28;20198;-87
2022/01/24 10:21:56;;;;;;;35.00;21.80;;;12.40;72.00;;;;;;10526155;28;20269;-87
2022/01/24 10:27:17;;;;;;;39.67;21.80;;;12.30;72.50;;;;;;10544050;28;20260;-87
2022/01/24 10:32:38;;;;;;;31.53;19.23;;;12.20;72.70;;;;;;10526073;28;20226;-87
2022/01/24 10:37:40;;;;;;;37.87;19.93;;;12.40;73.00;;;;;;10524297;28;20732;-87
2022/01/24 10:42:57;;;;;;;33.33;20.87;;;12.30;72.60;;;;;;10543585;28;20248;-87
2022/01/24 10:48:00;;;;;;;35.90;21.07;;;12.20;72.90;;;;;;10543492;28;20194;-87
2022/01/24 10:53:22;;;;;;;37.13;21.87;;;12.20;72.90;;;;;;10524545;28;20357;-87
2022/01/24 10:58:33;;;;;;;36.40;21.70;;;12.10;73.30;;;;;;10542807;28;20213;-87
2022/01/24 11:03:36;;;;;;;36.17;20.57;;;12.00;73.50;;;;;;10542557;28;20198;-87
2022/01/24 11:08:39;;;;;;;38.73;19.63;;;11.50;74.90;;;;;;10524605;28;20198;-87
2022/01/24 11:13:43;;;;;;;48.43;27.53;;;11.60;75.10;;;;;;10542248;28;20613;-87
2022/01/24 11:18:46;;;;;;;37.83;22.20;;;11.40;74.30;;;;;;10523435;28;20773;-87
2022/01/24 11:23:49;;;;;;;47.23;25.30;;;11.30;75.40;;;;;;10523266;28;20198;-87
2022/01/24 11:28:52;;;;;;;39.57;24.07;;;11.40;75.50;;;;;;10541675;28;20225;-87
2022/01/24 11:34:04;;;;;;;33.33;19.77;;;11.30;75.60;;;;;;10541558;28;20197;-87
2022/01/24 11:39:08;;;;;;;37.60;21.93;;;11.00;77.20;;;;;;10522094;28;20765;-87
2022/01/24 11:44:15;;;;;;;31.57;19.43;;;11.00;76.80;;;;;;10540919;28;20605;-87
2022/01/24 11:49:25;;;;;;;45.57;24.37;;;11.30;76.40;;;;;;10521281;28;20207;-87
2022/01/24 11:54:44;;;;;;;34.40;19.70;;;10.50;78.50;;;;;;10540369;28;20206;-87
2022/01/24 11:59:49;;;;;;;30.47;17.67;;;11.40;76.50;;;;;;10521871;28;20221;-87
2022/01/24 12:05:15;;;;;;;37.87;21.73;;;11.80;74.80;;;;;;10540165;28;20241;-87
2022/01/24 12:10:21;;;;;;;48.97;27.40;;;11.90;74.10;;;;;;10521999;28;20231;-87
2022/01/24 12:15:54;;;;;;;38.13;20.80;;;11.40;74.50;;;;;;10522287;28;20198;-87
2022/01/24 12:21:03;;;;;;;33.73;19.37;;;12.00;73.90;;;;;;10514134;28;20370;-87
2022/01/24 12:26:08;;;;;;;32.73;18.73;;;12.30;73.60;;;;;;10539638;28;20562;-87
2022/01/24 12:31:16;;;;;;;30.03;18.50;;;12.20;73.70;;;;;;10521315;28;20711;-87
2022/01/24 12:36:39;;;;;;;31.13;18.50;;;11.90;74.50;;;;;;10521352;28;20217;-87
2022/01/24 12:41:48;;;;;;;30.40;18.97;;;11.80;74.80;;;;;;10522098;28;20298;-87
2022/01/24 12:46:51;;;;;;;33.33;19.30;;;12.30;73.40;;;;;;10539022;28;20190;-87
2022/01/24 12:51:54;;;;;;;32.43;19.50;;;12.00;74.50;;;;;;10521095;28;20251;-87
2022/01/24 12:57:01;;;;;;;36.00;20.47;;;11.90;74.20;;;;;;10538416;28;20240;-87
2022/01/24 13:02:08;;;;;;;32.63;20.43;;;12.00;73.80;;;;;;10519982;28;20237;-87
2022/01/24 13:07:11;;;;;;;34.23;20.90;;;12.10;73.80;;;;;;10538336;28;20561;-87
2022/01/24 13:12:13;;;;;;;29.80;18.00;;;12.30;73.60;;;;;;10538106;28;20318;-87
2022/01/24 13:22:59;;;;;;;30.70;18.87;;;12.50;72.80;;;;;;10512413;28;20234;-87
2022/01/24 13:28:03;;;;;;;37.63;21.87;;;12.30;73.00;;;;;;10537998;28;20251;-88
2022/01/24 13:33:07;;;;;;;42.60;26.07;;;12.10;73.60;;;;;;10538184;28;20195;-87
2022/01/24 13:38:16;;;;;;;30.87;17.90;;;11.90;73.60;;;;;;10519928;28;20558;-87
2022/01/24 13:43:30;;;;;;;28.93;18.40;;;12.10;73.80;;;;;;10537846;28;20262;-87
2022/01/24 13:48:59;;;;;;;33.23;17.83;;;12.20;73.70;;;;;;10537914;28;20524;-87
2022/01/24 13:54:16;;;;;;;28.77;17.40;;;12.10;73.80;;;;;;10518734;28;20736;-87
2022/01/24 13:59:37;;;;;;;30.93;17.70;;;12.10;73.90;;;;;;10537636;28;20206;-87
2022/01/24 14:04:48;;;;;;;32.00;17.37;;;12.00;74.20;;;;;;10537638;28;20243;-87
2022/01/24 14:09:54;;;;;;;29.00;17.73;;;12.20;73.70;;;;;;10520860;28;20679;-87
2022/01/24 14:15:06;;;;;;;29.03;16.57;;;12.30;73.50;;;;;;10526898;28;20251;-87
2022/01/24 14:20:16;;;;;;;26.60;17.00;;;12.30;73.40;;;;;;10526618;28;20583;-87
2022/01/24 14:25:22;;;;;;;28.67;16.37;;;12.30;73.40;;;;;;10526512;28;20206;-87
2022/01/24 14:30:25;;;;;;;32.40;17.67;;;12.30;73.50;;;;;;10509687;28;20727;-87
2022/01/24 14:35:30;;;;;;;28.80;16.57;;;12.40;73.20;;;;;;10543783;28;20235;-87
2022/01/24 14:40:47;;;;;;;27.93;17.47;;;12.50;73.10;;;;;;10525766;28;20210;-87
2022/01/24 14:45:50;;;;;;;28.70;17.50;;;12.20;73.80;;;;;;10525757;28;20190;-87
2022/01/24 14:50:52;;;;;;;29.30;17.23;;;12.10;74.00;;;;;;10543355;28;20194;-87
2022/01/24 14:55:55;;;;;;;29.93;16.70;;;12.20;73.90;;;;;;10524825;28;20236;-87
2022/01/24 15:00:58;;;;;;;27.90;16.13;;;12.20;74.00;;;;;;10542799;28;20271;-87
2022/01/24 15:06:02;;;;;;;27.10;15.53;;;12.20;73.90;;;;;;10507881;28;20572;-87
2022/01/24 15:11:04;;;;;;;24.30;15.00;;;12.20;74.10;;;;;;10524557;28;20232;-87
2022/01/24 15:16:15;;;;;;;24.10;14.73;;;12.00;74.50;;;;;;10542335;28;20662;-87
2022/01/24 15:26:39;;;;;;;27.63;15.93;;;11.90;74.90;;;;;;10541882;28;20612;-87
2022/01/24 15:31:41;;;;;;;23.93;15.43;;;11.90;75.20;;;;;;10541574;28;20279;-87
2022/01/24 15:36:50;;;;;;;27.07;16.77;;;11.90;75.20;;;;;;10506892;28;20614;-87
2022/01/24 15:41:59;;;;;;;30.27;16.57;;;11.60;75.90;;;;;;10522868;28;20271;-87
2022/01/24 15:52:15;;;;;;;25.30;16.20;;;11.70;75.90;;;;;;10540905;28;20194;-87
2022/01/24 15:57:42;;;;;;;28.47;16.23;;;11.80;75.50;;;;;;10540794;28;20194;-87
2022/01/24 16:02:51;;;;;;;29.10;16.00;;;11.60;76.10;;;;;;10522625;28;20243;-87
2022/01/24 16:07:56;;;;;;;23.70;15.57;;;11.40;76.90;;;;;;10522355;28;20235;-87
2022/01/24 16:13:00;;;;;;;27.47;16.93;;;11.50;76.70;;;;;;10539929;28;20741;-87
2022/01/24 16:18:03;;;;;;;26.27;15.80;;;11.80;75.90;;;;;;10539913;28;20199;-87
2022/01/24 16:28:24;;;;;;;27.67;16.67;;;12.20;74.70;;;;;;10520745;28;20574;-87
2022/01/24 16:33:30;;;;;;;22.80;14.77;;;12.20;74.00;;;;;;10538773;28;20193;-87
2022/01/24 16:38:33;;;;;;;26.43;16.43;;;12.20;74.30;;;;;;10539191;28;20190;-87
2022/01/24 16:48:42;;;;;;;26.23;16.50;;;12.20;74.50;;;;;;10520344;28;20197;-87
2022/01/24 16:53:47;;;;;;;45.20;23.17;;;12.20;74.40;;;;;;10538932;28;20206;-87
2022/01/24 16:58:50;;;;;;;28.37;17.47;;;12.30;73.90;;;;;;10538724;28;20198;-86
2022/01/24 17:03:54;;;;;;;27.97;17.67;;;12.30;74.10;;;;;;10503789;28;20227;-87
2022/01/24 17:08:59;;;;;;;29.80;17.10;;;12.10;74.50;;;;;;10538532;28;20724;-87
2022/01/24 17:14:08;;;;;;;27.53;16.33;;;11.90;75.10;;;;;;10520576;28;20268;-87
2022/01/24 17:19:17;;;;;;;26.57;16.13;;;12.00;75.10;;;;;;10521249;28;20223;-87
2022/01/24 17:24:19;;;;;;;27.43;16.53;;;12.10;74.90;;;;;;10538209;28;20327;-87
2022/01/24 17:29:42;;;;;;;26.70;16.87;;;11.90;75.20;;;;;;10519473;28;20271;-87
2022/01/24 17:34:45;;;;;;;27.53;16.33;;;11.90;75.50;;;;;;10538143;28;20624;-87
2022/01/24 17:39:47;;;;;;;32.93;18.47;;;12.00;75.30;;;;;;10537729;28;20740;-87
2022/01/24 17:44:50;;;;;;;36.37;18.80;;;11.90;75.60;;;;;;10541422;28;20532;-87
2022/01/24 17:49:52;;;;;;;29.33;17.40;;;11.90;75.60;;;;;;10510670;28;20252;-87
2022/01/24 17:54:54;;;;;;;27.10;16.70;;;11.90;75.70;;;;;;10510711;28;20624;-87
2022/01/24 17:59:57;;;;;;;33.60;17.53;;;12.00;75.60;;;;;;10527413;28;20214;-87
2022/01/24 18:04:59;;;;;;;28.50;16.63;;;12.00;75.50;;;;;;10527321;28;20198;-87
2022/01/24 18:10:04;;;;;;;32.50;18.30;;;11.90;75.60;;;;;;10545036;28;20194;-87
2022/01/24 18:15:07;;;;;;;28.57;17.77;;;11.90;75.80;;;;;;10544778;28;20198;-87
2022/01/24 18:20:11;;;;;;;30.60;17.03;;;12.00;75.60;;;;;;10544590;28;20232;-87
2022/01/24 18:25:15;;;;;;;28.50;17.53;;;12.00;75.30;;;;;;10544440;28;20194;-87
2022/01/24 18:30:18;;;;;;;27.87;17.07;;;12.30;74.70;;;;;;10525357;28;20289;-87
2022/01/24 18:35:20;;;;;;;32.50;19.37;;;12.30;74.30;;;;;;10543806;28;20198;-87
2022/01/24 18:40:23;;;;;;;29.30;18.93;;;12.20;74.50;;;;;;10525797;28;20236;-87
2022/01/24 18:45:26;;;;;;;28.03;18.50;;;12.20;74.50;;;;;;10543619;28;20224;-87
2022/01/24 18:50:29;;;;;;;30.60;17.63;;;12.30;74.30;;;;;;10543405;28;20193;-87
2022/01/24 18:55:32;;;;;;;28.60;18.00;;;12.20;74.50;;;;;;10523974;28;20210;-87
2022/01/24 19:00:35;;;;;;;32.13;17.50;;;12.30;74.30;;;;;;10542871;28;20218;-87
2022/01/24 19:05:38;;;;;;;31.33;18.40;;;12.30;74.40;;;;;;10524979;28;20194;-87
2022/01/24 19:10:42;;;;;;;30.23;17.83;;;12.10;75.00;;;;;;10524214;28;20202;-87
2022/01/24 19:15:46;;;;;;;31.30;17.60;;;12.00;75.50;;;;;;10524386;28;20194;-87
2022/01/24 19:26:12;;;;;;;32.40;17.60;;;12.00;75.30;;;;;;10523286;28;20247;-87
2022/01/24 19:31:16;;;;;;;33.63;18.37;;;12.10;75.20;;;;;;10541576;28;20570;-87
2022/01/24 19:36:20;;;;;;;31.67;18.27;;;11.90;75.60;;;;;;10541302;28;20607;-87
2022/01/24 19:41:23;;;;;;;33.23;19.40;;;12.10;75.50;;;;;;10541334;28;20280;-87
2022/01/24 19:46:25;;;;;;;35.60;18.63;;;12.30;74.60;;;;;;10541435;28;20252;-87
2022/01/24 19:51:28;;;;;;;33.77;18.13;;;12.30;74.60;;;;;;10540950;28;20194;-87
2022/01/24 19:56:41;;;;;;;31.23;18.13;;;12.40;74.50;;;;;;10521925;28;20209;-87
2022/01/24 20:01:45;;;;;;;37.20;20.27;;;12.30;74.50;;;;;;10540634;28;20221;-87
2022/01/24 20:06:57;;;;;;;36.93;19.63;;;12.40;74.50;;;;;;10539429;28;20198;-87
2022/01/24 20:11:59;;;;;;;32.70;19.33;;;12.40;74.50;;;;;;10540090;28;20243;-87
2022/01/24 20:17:02;;;;;;;32.17;18.43;;;12.30;74.60;;;;;;10522034;28;20199;-87
2022/01/24 20:22:05;;;;;;;31.40;18.70;;;12.10;75.20;;;;;;10539834;28;20209;-87
2022/01/24 20:27:10;;;;;;;30.83;18.90;;;12.00;75.50;;;;;;10539762;28;20611;-87
2022/01/24 20:32:12;;;;;;;36.87;19.20;;;12.20;75.50;;;;;;10539338;28;20590;-87
2022/01/24 20:37:15;;;;;;;50.40;26.40;;;12.30;74.90;;;;;;10521482;28;20198;-87
2022/01/24 20:42:17;;;;;;;31.40;18.57;;;12.40;74.50;;;;;;10539012;28;20239;-87
2022/01/24 20:47:19;;;;;;;32.23;19.30;;;12.60;74.10;;;;;;10520591;28;20608;-87
2022/01/24 20:52:22;;;;;;;33.83;20.23;;;12.70;73.80;;;;;;10538993;28;20193;-87
2022/01/24 20:57:25;;;;;;;34.60;19.33;;;12.80;73.40;;;;;;10538812;28;20247;-87
2022/01/24 21:02:27;;;;;;;34.23;18.43;;;12.60;73.60;;;;;;10538630;28;20276;-87
2022/01/24 21:07:30;;;;;;;31.77;17.60;;;12.60;73.70;;;;;;10520860;28;20187;-87
2022/01/24 21:12:53;;;;;;;34.70;18.33;;;12.70;73.60;;;;;;10538411;28;20202;-87
2022/01/24 21:17:56;;;;;;;31.40;18.57;;;12.70;73.80;;;;;;10538942;28;20626;-87
2022/01/24 21:22:58;;;;;;;27.30;17.50;;;12.70;73.80;;;;;;10546775;28;20272;-87
2022/01/24 21:28:01;;;;;;;34.07;18.07;;;12.70;73.70;;;;;;10546411;28;20225;-87
2022/01/24 21:33:04;;;;;;;29.70;17.30;;;12.80;73.70;;;;;;10528095;28;20615;-87
2022/01/24 21:38:08;;;;;;;31.43;17.00;;;12.70;73.40;;;;;;10546383;28;20580;-87
2022/01/24 21:43:11;;;;;;;26.27;15.40;;;12.60;73.70;;;;;;10546193;28;20251;-87
2022/01/24 21:48:13;;;;;;;27.63;15.43;;;12.60;73.80;;;;;;10545865;28;20217;-87
2022/01/24 21:53:16;;;;;;;29.87;16.37;;;12.70;73.80;;;;;;10545720;28;20725;-87
2022/01/24 21:58:19;;;;;;;23.83;15.70;;;12.70;73.80;;;;;;10527589;28;20271;-87
2022/01/24 22:03:21;;;;;;;26.47;15.60;;;12.70;73.70;;;;;;10527738;28;20217;-87
2022/01/24 22:13:47;;;;;;;26.37;15.17;;;12.80;73.50;;;;;;10512150;28;20229;-86
2022/01/24 22:18:50;;;;;;;28.07;14.47;;;12.80;73.30;;;;;;10544761;28;20258;-87
2022/01/24 22:23:57;;;;;;;27.50;14.67;;;12.70;73.70;;;;;;10527285;28;20270;-87
2022/01/24 22:29:06;;;;;;;25.00;15.57;;;12.70;73.60;;;;;;10544020;28;20634;-87
2022/01/24 22:34:08;;;;;;;23.07;14.07;;;12.70;73.50;;;;;;10525456;28;20244;-87
2022/01/24 22:39:11;;;;;;;23.70;13.97;;;12.80;73.30;;;;;;10526074;28;20252;-87
2022/01/24 22:44:13;;;;;;;22.00;13.13;;;12.80;73.30;;;;;;10543549;28;20268;-87
2022/01/24 22:49:16;;;;;;;21.97;12.53;;;12.90;73.30;;;;;;10543619;28;20187;-87
2022/01/24 22:54:19;;;;;;;20.47;12.40;;;12.70;73.50;;;;;;10543304;28;20244;-86
2022/01/24 22:59:22;;;;;;;22.87;13.60;;;12.70;73.40;;;;;;10542997;28;20202;-87
2022/01/24 23:04:26;;;;;;;20.40;12.80;;;12.80;73.30;;;;;;10524839;28;20221;-87
2022/01/24 23:09:33;;;;;;;18.47;11.90;;;12.80;73.20;;;;;;10542739;28;20194;-87
2022/01/24 23:19:56;;;;;;;20.60;11.90;;;12.60;73.80;;;;;;10542294;28;20215;-87
2022/01/24 23:25:01;;;;;;;17.87;11.07;;;12.70;73.50;;;;;;10542000;28;20243;-87
2022/01/24 23:30:06;;;;;;;21.40;11.53;;;12.70;73.50;;;;;;10541857;28;20275;-87
2022/01/24 23:40:46;;;;;;;16.17;9.77;;;12.70;73.10;;;;;;10541408;28;20248;-87
2022/01/24 23:45:48;;;;;;;16.43;10.33;;;12.60;73.50;;;;;;10523214;28;20221;-87
2022/01/24 23:50:51;;;;;;;16.17;10.23;;;12.60;73.60;;;;;;10540983;28;20243;-87
2022/01/24 23:55:54;;;;;;;13.17;9.23;;;12.60;73.50;;;;;;10540717;28;20202;-87
